sensor_id;sensor_type;location;lat;lon;timestamp;P1;durP1;ratioP1;P2;durP2;ratioP2
16524;SDS011;8375;33.594;-117.718;2022-08-01T00:00:47;5.70;;;3.00;;
16524;SDS011;8375;33.594;-117.718;2022-08-01T00:03:15;2.42;;;2.22;;
16524;SDS011;8375;33.594;-117.718;2022-08-01T00:05:45;3.40;;;2.35;;
16524;SDS011;8375;33.594;-117.718;2022-08-01T00:08:16;3.22;;;2.80;;
16524;SDS011;8375;33.594;-117.718;2022-08-01T00:10:44;4.00;;;2.70;;
16524;SDS011;8375;33.594;-117.718;2022-08-01T00:13:13;4.57;;;2.65;;
16524;SDS011;8375;33.594;-117.718;2022-08-01T00:15:41;2.75;;;2.28;;
16524;SDS011;8375;33.594;-117.718;2022-08-01T00:18:10;4.35;;;2.30;;
16524;SDS011;8375;33.594;-117.718;2022-08-01T00:20:39;2.45;;;2.25;;
16524;SDS011;8375;33.594;-117.718;2022-08-01T00:23:09;3.15;;;2.08;;
16524;SDS011;8375;33.594;-117.718;2022-08-01T00:25:38;5.80;;;2.15;;
16524;SDS011;8375;33.594;-117.718;2022-08-01T00:28:08;4.00;;;2.22;;
16524;SDS011;8375;33.594;-117.718;2022-08-01T00:30:37;2.83;;;1.90;;
16524;SDS011;8375;33.594;-117.718;2022-08-01T00:33:05;4.40;;;1.90;;
16524;SDS011;8375;33.594;-117.718;2022-08-01T00:35:34;3.45;;;2.10;;
16524;SDS011;8375;33.594;-117.718;2022-08-01T00:38:03;4.65;;;1.88;;
16524;SDS011;8375;33.594;-117.718;2022-08-01T00:40:34;4.20;;;1.95;;
16524;SDS011;8375;33.594;-117.718;2022-08-01T00:43:02;2.55;;;1.60;;
16524;SDS011;8375;33.594;-117.718;2022-08-01T00:45:31;1.50;;;1.40;;
16524;SDS011;8375;33.594;-117.718;2022-08-01T00:48:00;1.63;;;1.50;;
16524;SDS011;8375;33.594;-117.718;2022-08-01T00:50:29;4.00;;;3.58;;
16524;SDS011;8375;33.594;-117.718;2022-08-01T00:52:58;2.78;;;1.40;;
16524;SDS011;8375;33.594;-117.718;2022-08-01T00:55:27;3.47;;;1.80;;
16524;SDS011;8375;33.594;-117.718;2022-08-01T00:57:58;2.28;;;1.52;;
16524;SDS011;8375;33.594;-117.718;2022-08-01T01:00:27;2.90;;;1.85;;
16524;SDS011;8375;33.594;-117.718;2022-08-01T01:02:56;3.10;;;1.75;;
16524;SDS011;8375;33.594;-117.718;2022-08-01T01:05:25;3.38;;;1.95;;
16524;SDS011;8375;33.594;-117.718;2022-08-01T01:07:56;3.72;;;1.88;;
16524;SDS011;8375;33.594;-117.718;2022-08-01T01:10:30;2.60;;;1.77;;
16524;SDS011;8375;33.594;-117.718;2022-08-01T01:13:16;4.65;;;3.17;;
16524;SDS011;8375;33.594;-117.718;2022-08-01T01:15:51;2.13;;;1.63;;
16524;SDS011;8375;33.594;-117.718;2022-08-01T01:18:26;2.22;;;1.30;;
16524;SDS011;8375;33.594;-117.718;2022-08-01T01:21:01;3.25;;;1.58;;
16524;SDS011;8375;33.594;-117.718;2022-08-01T01:23:44;3.15;;;2.53;;
16524;SDS011;8375;33.594;-117.718;2022-08-01T01:26:28;3.30;;;2.10;;
16524;SDS011;8375;33.594;-117.718;2022-08-01T01:29:11;6.15;;;2.40;;
16524;SDS011;8375;33.594;-117.718;2022-08-01T01:31:46;5.28;;;2.50;;
16524;SDS011;8375;33.594;-117.718;2022-08-01T01:34:18;7.78;;;2.78;;
16524;SDS011;8375;33.594;-117.718;2022-08-01T01:36:49;3.05;;;2.60;;
16524;SDS011;8375;33.594;-117.718;2022-08-01T01:39:22;4.20;;;2.70;;
16524;SDS011;8375;33.594;-117.718;2022-08-01T01:41:54;3.58;;;2.35;;
16524;SDS011;8375;33.594;-117.718;2022-08-01T01:44:27;4.40;;;2.60;;
16524;SDS011;8375;33.594;-117.718;2022-08-01T01:46:58;5.47;;;2.60;;
16524;SDS011;8375;33.594;-117.718;2022-08-01T01:49:28;4.72;;;2.60;;
16524;SDS011;8375;33.594;-117.718;2022-08-01T01:51:57;5.43;;;2.75;;
16524;SDS011;8375;33.594;-117.718;2022-08-01T01:54:28;4.45;;;2.70;;
16524;SDS011;8375;33.594;-117.718;2022-08-01T01:57:00;2.45;;;2.25;;
16524;SDS011;8375;33.594;-117.718;2022-08-01T01:59:33;4.28;;;2.65;;
16524;SDS011;8375;33.594;-117.718;2022-08-01T02:02:04;3.17;;;2.40;;
16524;SDS011;8375;33.594;-117.718;2022-08-01T02:04:35;5.40;;;2.72;;
16524;SDS011;8375;33.594;-117.718;2022-08-01T02:07:05;5.30;;;2.78;;
16524;SDS011;8375;33.594;-117.718;2022-08-01T02:09:36;4.55;;;2.90;;
16524;SDS011;8375;33.594;-117.718;2022-08-01T02:12:07;6.28;;;3.45;;
16524;SDS011;8375;33.594;-117.718;2022-08-01T02:14:41;5.90;;;3.30;;
16524;SDS011;8375;33.594;-117.718;2022-08-01T02:17:12;4.53;;;2.65;;
16524;SDS011;8375;33.594;-117.718;2022-08-01T02:19:44;5.15;;;2.90;;
16524;SDS011;8375;33.594;-117.718;2022-08-01T02:22:15;5.85;;;3.20;;
16524;SDS011;8375;33.594;-117.718;2022-08-01T02:24:49;7.70;;;3.10;;
16524;SDS011;8375;33.594;-117.718;2022-08-01T02:27:23;5.00;;;3.20;;
16524;SDS011;8375;33.594;-117.718;2022-08-01T02:29:58;4.57;;;3.10;;
16524;SDS011;8375;33.594;-117.718;2022-08-01T02:32:31;3.85;;;2.80;;
16524;SDS011;8375;33.594;-117.718;2022-08-01T02:35:04;3.05;;;2.55;;
16524;SDS011;8375;33.594;-117.718;2022-08-01T02:37:38;3.05;;;2.55;;
16524;SDS011;8375;33.594;-117.718;2022-08-01T02:40:08;4.03;;;2.42;;
16524;SDS011;8375;33.594;-117.718;2022-08-01T02:42:40;5.18;;;2.67;;
16524;SDS011;8375;33.594;-117.718;2022-08-01T02:45:14;3.15;;;2.30;;
16524;SDS011;8375;33.594;-117.718;2022-08-01T02:47:46;4.57;;;2.25;;
16524;SDS011;8375;33.594;-117.718;2022-08-01T02:50:17;4.45;;;2.30;;
16524;SDS011;8375;33.594;-117.718;2022-08-01T02:52:47;5.05;;;2.40;;
16524;SDS011;8375;33.594;-117.718;2022-08-01T02:55:19;6.05;;;2.38;;
16524;SDS011;8375;33.594;-117.718;2022-08-01T02:57:48;2.97;;;2.20;;
16524;SDS011;8375;33.594;-117.718;2022-08-01T03:00:22;5.43;;;2.42;;
16524;SDS011;8375;33.594;-117.718;2022-08-01T03:02:52;4.13;;;1.98;;
16524;SDS011;8375;33.594;-117.718;2022-08-01T03:05:24;4.20;;;2.10;;
16524;SDS011;8375;33.594;-117.718;2022-08-01T03:07:54;4.55;;;2.50;;
16524;SDS011;8375;33.594;-117.718;2022-08-01T03:10:24;5.30;;;2.20;;
16524;SDS011;8375;33.594;-117.718;2022-08-01T03:12:54;4.72;;;2.45;;
16524;SDS011;8375;33.594;-117.718;2022-08-01T03:15:26;4.93;;;2.45;;
16524;SDS011;8375;33.594;-117.718;2022-08-01T03:17:58;2.58;;;2.30;;
16524;SDS011;8375;33.594;-117.718;2022-08-01T03:20:29;5.50;;;2.55;;
16524;SDS011;8375;33.594;-117.718;2022-08-01T03:23:01;5.00;;;2.38;;
16524;SDS011;8375;33.594;-117.718;2022-08-01T03:25:31;4.03;;;2.00;;
16524;SDS011;8375;33.594;-117.718;2022-08-01T03:28:03;3.70;;;2.88;;
16524;SDS011;8375;33.594;-117.718;2022-08-01T03:30:35;4.50;;;2.65;;
16524;SDS011;8375;33.594;-117.718;2022-08-01T03:33:06;3.63;;;2.83;;
16524;SDS011;8375;33.594;-117.718;2022-08-01T03:35:36;4.15;;;2.50;;
16524;SDS011;8375;33.594;-117.718;2022-08-01T03:38:09;3.35;;;2.55;;
16524;SDS011;8375;33.594;-117.718;2022-08-01T03:40:41;3.22;;;2.58;;
16524;SDS011;8375;33.594;-117.718;2022-08-01T03:43:16;4.57;;;2.40;;
16524;SDS011;8375;33.594;-117.718;2022-08-01T03:45:52;4.60;;;2.83;;
16524;SDS011;8375;33.594;-117.718;2022-08-01T03:48:22;3.40;;;2.75;;
16524;SDS011;8375;33.594;-117.718;2022-08-01T03:50:57;4.15;;;2.42;;
16524;SDS011;8375;33.594;-117.718;2022-08-01T03:53:28;3.50;;;2.55;;
16524;SDS011;8375;33.594;-117.718;2022-08-01T03:56:00;4.90;;;2.50;;
16524;SDS011;8375;33.594;-117.718;2022-08-01T03:58:30;3.47;;;2.38;;
16524;SDS011;8375;33.594;-117.718;2022-08-01T04:01:01;3.53;;;2.08;;
16524;SDS011;8375;33.594;-117.718;2022-08-01T04:03:31;6.38;;;2.40;;
16524;SDS011;8375;33.594;-117.718;2022-08-01T04:06:03;4.07;;;2.25;;
16524;SDS011;8375;33.594;-117.718;2022-08-01T04:08:34;2.78;;;2.17;;
16524;SDS011;8375;33.594;-117.718;2022-08-01T04:11:03;3.50;;;2.70;;
16524;SDS011;8375;33.594;-117.718;2022-08-01T04:13:33;3.90;;;2.50;;
16524;SDS011;8375;33.594;-117.718;2022-08-01T04:16:04;4.85;;;2.50;;
16524;SDS011;8375;33.594;-117.718;2022-08-01T04:18:33;3.42;;;2.42;;
16524;SDS011;8375;33.594;-117.718;2022-08-01T04:21:02;5.53;;;3.08;;
16524;SDS011;8375;33.594;-117.718;2022-08-01T04:23:31;4.38;;;3.17;;
16524;SDS011;8375;33.594;-117.718;2022-08-01T04:26:03;5.40;;;3.13;;
16524;SDS011;8375;33.594;-117.718;2022-08-01T04:28:34;5.32;;;3.38;;
16524;SDS011;8375;33.594;-117.718;2022-08-01T04:31:08;6.82;;;3.70;;
16524;SDS011;8375;33.594;-117.718;2022-08-01T04:33:38;6.70;;;3.35;;
16524;SDS011;8375;33.594;-117.718;2022-08-01T04:36:11;7.80;;;3.83;;
16524;SDS011;8375;33.594;-117.718;2022-08-01T04:38:42;8.35;;;3.75;;
16524;SDS011;8375;33.594;-117.718;2022-08-01T04:41:14;6.97;;;4.05;;
16524;SDS011;8375;33.594;-117.718;2022-08-01T04:43:45;5.15;;;3.40;;
16524;SDS011;8375;33.594;-117.718;2022-08-01T04:46:16;7.20;;;3.92;;
16524;SDS011;8375;33.594;-117.718;2022-08-01T04:48:45;9.05;;;3.78;;
16524;SDS011;8375;33.594;-117.718;2022-08-01T04:51:15;7.18;;;3.70;;
16524;SDS011;8375;33.594;-117.718;2022-08-01T04:53:47;8.25;;;4.10;;
16524;SDS011;8375;33.594;-117.718;2022-08-01T04:56:18;8.68;;;4.55;;
16524;SDS011;8375;33.594;-117.718;2022-08-01T04:58:47;6.18;;;4.40;;
16524;SDS011;8375;33.594;-117.718;2022-08-01T05:01:38;7.68;;;4.60;;
16524;SDS011;8375;33.594;-117.718;2022-08-01T05:04:07;7.80;;;4.53;;
16524;SDS011;8375;33.594;-117.718;2022-08-01T05:06:35;5.22;;;3.75;;
16524;SDS011;8375;33.594;-117.718;2022-08-01T05:09:04;9.80;;;4.93;;
16524;SDS011;8375;33.594;-117.718;2022-08-01T05:11:33;4.93;;;4.43;;
16524;SDS011;8375;33.594;-117.718;2022-08-01T05:14:01;7.85;;;5.38;;
16524;SDS011;8375;33.594;-117.718;2022-08-01T05:16:30;7.45;;;5.28;;
16524;SDS011;8375;33.594;-117.718;2022-08-01T05:19:01;7.57;;;5.63;;
16524;SDS011;8375;33.594;-117.718;2022-08-01T05:21:29;7.20;;;5.75;;
16524;SDS011;8375;33.594;-117.718;2022-08-01T05:23:58;9.30;;;5.60;;
16524;SDS011;8375;33.594;-117.718;2022-08-01T05:26:28;8.98;;;5.40;;
16524;SDS011;8375;33.594;-117.718;2022-08-01T05:28:57;6.40;;;5.28;;
16524;SDS011;8375;33.594;-117.718;2022-08-01T05:31:26;7.40;;;4.82;;
16524;SDS011;8375;33.594;-117.718;2022-08-01T05:33:55;7.78;;;4.75;;
16524;SDS011;8375;33.594;-117.718;2022-08-01T05:36:26;8.35;;;5.30;;
16524;SDS011;8375;33.594;-117.718;2022-08-01T05:38:55;6.65;;;5.30;;
16524;SDS011;8375;33.594;-117.718;2022-08-01T05:41:23;8.38;;;5.90;;
16524;SDS011;8375;33.594;-117.718;2022-08-01T05:43:52;7.20;;;5.28;;
16524;SDS011;8375;33.594;-117.718;2022-08-01T05:46:21;6.25;;;5.03;;
16524;SDS011;8375;33.594;-117.718;2022-08-01T05:48:50;5.72;;;5.22;;
16524;SDS011;8375;33.594;-117.718;2022-08-01T05:51:19;5.63;;;5.00;;
16524;SDS011;8375;33.594;-117.718;2022-08-01T05:53:50;7.68;;;5.38;;
16524;SDS011;8375;33.594;-117.718;2022-08-01T05:56:19;6.68;;;4.95;;
16524;SDS011;8375;33.594;-117.718;2022-08-01T05:58:48;7.45;;;4.68;;
16524;SDS011;8375;33.594;-117.718;2022-08-01T06:01:17;9.50;;;6.15;;
16524;SDS011;8375;33.594;-117.718;2022-08-01T06:03:46;6.70;;;5.25;;
16524;SDS011;8375;33.594;-117.718;2022-08-01T06:06:15;7.38;;;5.47;;
16524;SDS011;8375;33.594;-117.718;2022-08-01T06:08:44;6.70;;;5.43;;
16524;SDS011;8375;33.594;-117.718;2022-08-01T06:11:15;9.70;;;5.78;;
16524;SDS011;8375;33.594;-117.718;2022-08-01T06:13:44;7.65;;;5.57;;
16524;SDS011;8375;33.594;-117.718;2022-08-01T06:16:12;7.22;;;5.28;;
16524;SDS011;8375;33.594;-117.718;2022-08-01T06:18:41;10.45;;;6.20;;
16524;SDS011;8375;33.594;-117.718;2022-08-01T06:21:11;8.02;;;6.00;;
16524;SDS011;8375;33.594;-117.718;2022-08-01T06:23:39;10.13;;;6.50;;
16524;SDS011;8375;33.594;-117.718;2022-08-01T06:26:08;11.20;;;6.80;;
16524;SDS011;8375;33.594;-117.718;2022-08-01T06:28:39;7.07;;;6.07;;
16524;SDS011;8375;33.594;-117.718;2022-08-01T06:31:08;8.80;;;7.00;;
16524;SDS011;8375;33.594;-117.718;2022-08-01T06:33:39;8.88;;;7.00;;
16524;SDS011;8375;33.594;-117.718;2022-08-01T06:36:08;7.85;;;6.35;;
16524;SDS011;8375;33.594;-117.718;2022-08-01T06:38:37;7.93;;;6.20;;
16524;SDS011;8375;33.594;-117.718;2022-08-01T06:41:06;9.60;;;6.53;;
16524;SDS011;8375;33.594;-117.718;2022-08-01T06:43:35;8.00;;;6.20;;
16524;SDS011;8375;33.594;-117.718;2022-08-01T06:46:06;10.85;;;6.65;;
16524;SDS011;8375;33.594;-117.718;2022-08-01T06:48:35;9.23;;;7.43;;
16524;SDS011;8375;33.594;-117.718;2022-08-01T06:51:04;10.50;;;7.10;;
16524;SDS011;8375;33.594;-117.718;2022-08-01T06:53:39;8.88;;;7.13;;
16524;SDS011;8375;33.594;-117.718;2022-08-01T06:56:08;9.75;;;7.30;;
16524;SDS011;8375;33.594;-117.718;2022-08-01T06:58:37;8.38;;;7.47;;
16524;SDS011;8375;33.594;-117.718;2022-08-01T07:01:07;8.93;;;7.60;;
16524;SDS011;8375;33.594;-117.718;2022-08-01T07:03:37;10.43;;;7.90;;
16524;SDS011;8375;33.594;-117.718;2022-08-01T07:06:05;11.75;;;7.85;;
16524;SDS011;8375;33.594;-117.718;2022-08-01T07:08:37;15.20;;;8.57;;
16524;SDS011;8375;33.594;-117.718;2022-08-01T07:11:06;10.70;;;8.30;;
16524;SDS011;8375;33.594;-117.718;2022-08-01T07:13:35;10.50;;;8.10;;
16524;SDS011;8375;33.594;-117.718;2022-08-01T07:16:04;8.60;;;7.75;;
16524;SDS011;8375;33.594;-117.718;2022-08-01T07:18:34;11.00;;;8.15;;
16524;SDS011;8375;33.594;-117.718;2022-08-01T07:21:03;11.30;;;8.25;;
16524;SDS011;8375;33.594;-117.718;2022-08-01T07:23:32;8.70;;;7.28;;
16524;SDS011;8375;33.594;-117.718;2022-08-01T07:26:02;10.60;;;8.25;;
16524;SDS011;8375;33.594;-117.718;2022-08-01T07:28:32;11.63;;;7.68;;
16524;SDS011;8375;33.594;-117.718;2022-08-01T07:31:01;9.23;;;6.97;;
16524;SDS011;8375;33.594;-117.718;2022-08-01T07:33:29;9.82;;;7.60;;
16524;SDS011;8375;33.594;-117.718;2022-08-01T07:36:00;11.48;;;7.18;;
16524;SDS011;8375;33.594;-117.718;2022-08-01T07:38:29;12.27;;;7.90;;
16524;SDS011;8375;33.594;-117.718;2022-08-01T07:40:57;11.88;;;7.80;;
16524;SDS011;8375;33.594;-117.718;2022-08-01T07:43:26;10.57;;;7.30;;
16524;SDS011;8375;33.594;-117.718;2022-08-01T07:45:55;10.27;;;7.38;;
16524;SDS011;8375;33.594;-117.718;2022-08-01T07:48:23;9.82;;;7.50;;
16524;SDS011;8375;33.594;-117.718;2022-08-01T07:50:52;12.27;;;7.65;;
16524;SDS011;8375;33.594;-117.718;2022-08-01T07:53:22;9.93;;;7.07;;
16524;SDS011;8375;33.594;-117.718;2022-08-01T07:55:51;13.02;;;7.57;;
16524;SDS011;8375;33.594;-117.718;2022-08-01T07:58:20;9.27;;;6.53;;
16524;SDS011;8375;33.594;-117.718;2022-08-01T08:00:48;11.60;;;7.63;;
16524;SDS011;8375;33.594;-117.718;2022-08-01T08:03:17;12.13;;;8.00;;
16524;SDS011;8375;33.594;-117.718;2022-08-01T08:05:45;10.13;;;7.65;;
16524;SDS011;8375;33.594;-117.718;2022-08-01T08:08:14;10.33;;;8.17;;
16524;SDS011;8375;33.594;-117.718;2022-08-01T08:10:45;10.15;;;7.78;;
16524;SDS011;8375;33.594;-117.718;2022-08-01T08:13:13;10.98;;;8.23;;
16524;SDS011;8375;33.594;-117.718;2022-08-01T08:15:42;9.10;;;7.25;;
16524;SDS011;8375;33.594;-117.718;2022-08-01T08:18:11;9.95;;;7.82;;
16524;SDS011;8375;33.594;-117.718;2022-08-01T08:20:39;10.55;;;8.05;;
16524;SDS011;8375;33.594;-117.718;2022-08-01T08:23:08;8.43;;;7.15;;
16524;SDS011;8375;33.594;-117.718;2022-08-01T08:25:51;9.07;;;7.80;;
16524;SDS011;8375;33.594;-117.718;2022-08-01T08:28:20;9.50;;;7.60;;
16524;SDS011;8375;33.594;-117.718;2022-08-01T08:30:48;9.27;;;7.47;;
16524;SDS011;8375;33.594;-117.718;2022-08-01T08:33:18;9.60;;;7.53;;
16524;SDS011;8375;33.594;-117.718;2022-08-01T08:35:47;9.95;;;7.50;;
16524;SDS011;8375;33.594;-117.718;2022-08-01T08:38:15;10.35;;;7.63;;
16524;SDS011;8375;33.594;-117.718;2022-08-01T08:40:44;8.48;;;7.57;;
16524;SDS011;8375;33.594;-117.718;2022-08-01T08:43:15;11.18;;;8.27;;
16524;SDS011;8375;33.594;-117.718;2022-08-01T08:45:43;9.73;;;7.63;;
16524;SDS011;8375;33.594;-117.718;2022-08-01T08:48:13;11.27;;;7.93;;
16524;SDS011;8375;33.594;-117.718;2022-08-01T08:50:42;11.88;;;8.23;;
16524;SDS011;8375;33.594;-117.718;2022-08-01T08:53:13;10.80;;;8.30;;
16524;SDS011;8375;33.594;-117.718;2022-08-01T08:55:42;11.27;;;7.90;;
16524;SDS011;8375;33.594;-117.718;2022-08-01T08:58:12;10.45;;;8.27;;
16524;SDS011;8375;33.594;-117.718;2022-08-01T09:00:45;10.30;;;8.07;;
16524;SDS011;8375;33.594;-117.718;2022-08-01T09:03:14;10.75;;;7.75;;
16524;SDS011;8375;33.594;-117.718;2022-08-01T09:05:43;9.27;;;7.63;;
16524;SDS011;8375;33.594;-117.718;2022-08-01T09:08:12;9.38;;;7.68;;
16524;SDS011;8375;33.594;-117.718;2022-08-01T09:10:40;11.77;;;8.60;;
16524;SDS011;8375;33.594;-117.718;2022-08-01T09:13:09;10.93;;;8.68;;
16524;SDS011;8375;33.594;-117.718;2022-08-01T09:15:44;11.23;;;8.45;;
16524;SDS011;8375;33.594;-117.718;2022-08-01T09:18:26;9.52;;;7.88;;
16524;SDS011;8375;33.594;-117.718;2022-08-01T09:23:47;8.13;;;7.30;;
16524;SDS011;8375;33.594;-117.718;2022-08-01T09:26:17;13.05;;;8.30;;
16524;SDS011;8375;33.594;-117.718;2022-08-01T09:28:47;11.67;;;8.17;;
16524;SDS011;8375;33.594;-117.718;2022-08-01T09:31:18;11.32;;;8.80;;
16524;SDS011;8375;33.594;-117.718;2022-08-01T09:33:50;11.38;;;8.48;;
16524;SDS011;8375;33.594;-117.718;2022-08-01T09:36:20;9.75;;;8.10;;
16524;SDS011;8375;33.594;-117.718;2022-08-01T09:38:51;11.33;;;8.60;;
16524;SDS011;8375;33.594;-117.718;2022-08-01T09:41:28;12.50;;;8.53;;
16524;SDS011;8375;33.594;-117.718;2022-08-01T09:43:57;10.10;;;8.33;;
16524;SDS011;8375;33.594;-117.718;2022-08-01T09:46:28;10.30;;;9.25;;
16524;SDS011;8375;33.594;-117.718;2022-08-01T09:48:57;13.73;;;8.97;;
16524;SDS011;8375;33.594;-117.718;2022-08-01T09:51:28;12.87;;;8.93;;
16524;SDS011;8375;33.594;-117.718;2022-08-01T09:53:58;12.10;;;8.60;;
16524;SDS011;8375;33.594;-117.718;2022-08-01T09:56:26;13.60;;;8.93;;
16524;SDS011;8375;33.594;-117.718;2022-08-01T09:59:04;9.80;;;8.13;;
16524;SDS011;8375;33.594;-117.718;2022-08-01T10:01:44;10.83;;;8.87;;
16524;SDS011;8375;33.594;-117.718;2022-08-01T10:04:14;10.17;;;8.03;;
16524;SDS011;8375;33.594;-117.718;2022-08-01T10:06:43;9.30;;;7.97;;
16524;SDS011;8375;33.594;-117.718;2022-08-01T10:09:25;12.43;;;9.00;;
16524;SDS011;8375;33.594;-117.718;2022-08-01T10:11:55;10.52;;;8.48;;
16524;SDS011;8375;33.594;-117.718;2022-08-01T10:14:25;13.77;;;8.40;;
16524;SDS011;8375;33.594;-117.718;2022-08-01T10:16:57;11.03;;;8.77;;
16524;SDS011;8375;33.594;-117.718;2022-08-01T10:19:27;10.47;;;8.80;;
16524;SDS011;8375;33.594;-117.718;2022-08-01T10:21:58;13.63;;;8.73;;
16524;SDS011;8375;33.594;-117.718;2022-08-01T10:24:28;9.37;;;8.47;;
16524;SDS011;8375;33.594;-117.718;2022-08-01T10:26:58;10.37;;;8.17;;
16524;SDS011;8375;33.594;-117.718;2022-08-01T10:29:31;10.50;;;8.37;;
16524;SDS011;8375;33.594;-117.718;2022-08-01T10:32:05;11.57;;;8.97;;
16524;SDS011;8375;33.594;-117.718;2022-08-01T10:34:35;10.73;;;8.70;;
16524;SDS011;8375;33.594;-117.718;2022-08-01T10:37:04;12.70;;;9.27;;
16524;SDS011;8375;33.594;-117.718;2022-08-01T10:39:34;11.43;;;8.77;;
16524;SDS011;8375;33.594;-117.718;2022-08-01T10:42:04;12.10;;;8.57;;
16524;SDS011;8375;33.594;-117.718;2022-08-01T10:44:33;9.67;;;8.57;;
16524;SDS011;8375;33.594;-117.718;2022-08-01T10:47:06;9.53;;;8.47;;
16524;SDS011;8375;33.594;-117.718;2022-08-01T10:49:41;11.77;;;8.30;;
16524;SDS011;8375;33.594;-117.718;2022-08-01T10:52:15;13.60;;;9.10;;
16524;SDS011;8375;33.594;-117.718;2022-08-01T10:54:44;14.83;;;9.03;;
16524;SDS011;8375;33.594;-117.718;2022-08-01T10:57:13;13.33;;;9.67;;
16524;SDS011;8375;33.594;-117.718;2022-08-01T10:59:49;16.30;;;9.90;;
16524;SDS011;8375;33.594;-117.718;2022-08-01T11:02:30;11.57;;;9.57;;
16524;SDS011;8375;33.594;-117.718;2022-08-01T11:05:07;10.57;;;9.47;;
16524;SDS011;8375;33.594;-117.718;2022-08-01T11:07:46;13.47;;;9.47;;
16524;SDS011;8375;33.594;-117.718;2022-08-01T11:10:21;10.63;;;9.63;;
16524;SDS011;8375;33.594;-117.718;2022-08-01T11:12:53;14.63;;;9.10;;
16524;SDS011;8375;33.594;-117.718;2022-08-01T11:15:23;12.50;;;9.40;;
16524;SDS011;8375;33.594;-117.718;2022-08-01T11:17:54;15.73;;;10.00;;
16524;SDS011;8375;33.594;-117.718;2022-08-01T11:20:24;12.77;;;9.70;;
16524;SDS011;8375;33.594;-117.718;2022-08-01T11:29:10;14.07;;;9.60;;
16524;SDS011;8375;33.594;-117.718;2022-08-01T11:31:44;13.80;;;9.67;;
16524;SDS011;8375;33.594;-117.718;2022-08-01T11:34:16;14.30;;;10.03;;
16524;SDS011;8375;33.594;-117.718;2022-08-01T11:36:45;13.00;;;8.70;;
16524;SDS011;8375;33.594;-117.718;2022-08-01T11:39:17;12.00;;;8.97;;
16524;SDS011;8375;33.594;-117.718;2022-08-01T11:41:47;15.80;;;9.50;;
16524;SDS011;8375;33.594;-117.718;2022-08-01T11:44:18;12.27;;;9.60;;
16524;SDS011;8375;33.594;-117.718;2022-08-01T11:46:52;11.40;;;8.83;;
16524;SDS011;8375;33.594;-117.718;2022-08-01T11:49:24;12.47;;;8.97;;
16524;SDS011;8375;33.594;-117.718;2022-08-01T11:52:02;13.27;;;8.57;;
16524;SDS011;8375;33.594;-117.718;2022-08-01T11:54:33;12.60;;;8.33;;
16524;SDS011;8375;33.594;-117.718;2022-08-01T11:57:04;9.80;;;8.80;;
16524;SDS011;8375;33.594;-117.718;2022-08-01T11:59:37;12.57;;;9.13;;
16524;SDS011;8375;33.594;-117.718;2022-08-01T12:02:24;11.87;;;8.27;;
16524;SDS011;8375;33.594;-117.718;2022-08-01T12:04:55;11.13;;;8.60;;
16524;SDS011;8375;33.594;-117.718;2022-08-01T12:07:26;9.70;;;8.80;;
16524;SDS011;8375;33.594;-117.718;2022-08-01T12:09:58;14.00;;;9.00;;
16524;SDS011;8375;33.594;-117.718;2022-08-01T12:12:28;12.40;;;9.47;;
16524;SDS011;8375;33.594;-117.718;2022-08-01T12:14:58;11.70;;;8.83;;
16524;SDS011;8375;33.594;-117.718;2022-08-01T12:17:28;12.97;;;8.53;;
16524;SDS011;8375;33.594;-117.718;2022-08-01T12:20:00;8.93;;;8.00;;
16524;SDS011;8375;33.594;-117.718;2022-08-01T12:22:30;12.03;;;8.57;;
16524;SDS011;8375;33.594;-117.718;2022-08-01T12:25:04;14.07;;;8.57;;
16524;SDS011;8375;33.594;-117.718;2022-08-01T12:27:34;11.33;;;9.50;;
16524;SDS011;8375;33.594;-117.718;2022-08-01T12:30:04;12.93;;;8.37;;
16524;SDS011;8375;33.594;-117.718;2022-08-01T12:32:35;10.57;;;8.37;;
16524;SDS011;8375;33.594;-117.718;2022-08-01T12:35:06;14.23;;;9.00;;
16524;SDS011;8375;33.594;-117.718;2022-08-01T12:37:36;17.20;;;9.13;;
16524;SDS011;8375;33.594;-117.718;2022-08-01T12:40:13;10.27;;;8.07;;
16524;SDS011;8375;33.594;-117.718;2022-08-01T12:42:43;11.27;;;8.20;;
16524;SDS011;8375;33.594;-117.718;2022-08-01T12:45:13;12.63;;;8.80;;
16524;SDS011;8375;33.594;-117.718;2022-08-01T12:47:44;12.43;;;8.80;;
16524;SDS011;8375;33.594;-117.718;2022-08-01T12:50:16;12.83;;;8.77;;
16524;SDS011;8375;33.594;-117.718;2022-08-01T12:52:46;10.03;;;9.00;;
16524;SDS011;8375;33.594;-117.718;2022-08-01T12:55:15;12.17;;;8.43;;
16524;SDS011;8375;33.594;-117.718;2022-08-01T12:57:45;10.27;;;8.40;;
16524;SDS011;8375;33.594;-117.718;2022-08-01T13:00:17;14.63;;;9.60;;
16524;SDS011;8375;33.594;-117.718;2022-08-01T13:02:48;11.50;;;8.20;;
16524;SDS011;8375;33.594;-117.718;2022-08-01T13:05:19;10.40;;;9.03;;
16524;SDS011;8375;33.594;-117.718;2022-08-01T13:07:52;14.93;;;9.07;;
16524;SDS011;8375;33.594;-117.718;2022-08-01T13:10:24;12.20;;;8.87;;
16524;SDS011;8375;33.594;-117.718;2022-08-01T13:12:56;11.00;;;8.37;;
16524;SDS011;8375;33.594;-117.718;2022-08-01T13:15:27;10.67;;;8.40;;
16524;SDS011;8375;33.594;-117.718;2022-08-01T13:17:58;11.17;;;8.77;;
16524;SDS011;8375;33.594;-117.718;2022-08-01T13:20:32;13.07;;;9.47;;
16524;SDS011;8375;33.594;-117.718;2022-08-01T13:23:12;13.80;;;9.20;;
16524;SDS011;8375;33.594;-117.718;2022-08-01T13:25:49;12.90;;;9.10;;
16524;SDS011;8375;33.594;-117.718;2022-08-01T13:28:20;13.57;;;9.33;;
16524;SDS011;8375;33.594;-117.718;2022-08-01T13:30:51;14.93;;;8.17;;
16524;SDS011;8375;33.594;-117.718;2022-08-01T13:33:25;13.43;;;8.23;;
16524;SDS011;8375;33.594;-117.718;2022-08-01T13:35:57;11.47;;;8.67;;
16524;SDS011;8375;33.594;-117.718;2022-08-01T13:38:26;10.97;;;8.47;;
16524;SDS011;8375;33.594;-117.718;2022-08-01T13:41:11;11.50;;;8.50;;
16524;SDS011;8375;33.594;-117.718;2022-08-01T13:43:41;11.43;;;8.73;;
16524;SDS011;8375;33.594;-117.718;2022-08-01T13:46:10;10.73;;;8.63;;
16524;SDS011;8375;33.594;-117.718;2022-08-01T13:48:39;12.07;;;8.53;;
16524;SDS011;8375;33.594;-117.718;2022-08-01T13:51:09;13.37;;;8.70;;
16524;SDS011;8375;33.594;-117.718;2022-08-01T13:53:39;11.27;;;8.93;;
16524;SDS011;8375;33.594;-117.718;2022-08-01T13:56:07;12.50;;;9.17;;
16524;SDS011;8375;33.594;-117.718;2022-08-01T13:58:36;13.27;;;8.53;;
16524;SDS011;8375;33.594;-117.718;2022-08-01T14:01:05;14.17;;;8.70;;
16524;SDS011;8375;33.594;-117.718;2022-08-01T14:03:33;10.48;;;9.13;;
16524;SDS011;8375;33.594;-117.718;2022-08-01T14:06:02;11.30;;;8.57;;
16524;SDS011;8375;33.594;-117.718;2022-08-01T14:08:32;9.40;;;8.40;;
16524;SDS011;8375;33.594;-117.718;2022-08-01T14:11:01;9.33;;;7.30;;
16524;SDS011;8375;33.594;-117.718;2022-08-01T14:13:30;11.60;;;8.33;;
16524;SDS011;8375;33.594;-117.718;2022-08-01T14:15:58;13.18;;;8.90;;
16524;SDS011;8375;33.594;-117.718;2022-08-01T14:18:27;15.00;;;8.10;;
16524;SDS011;8375;33.594;-117.718;2022-08-01T14:20:56;10.63;;;7.32;;
16524;SDS011;8375;33.594;-117.718;2022-08-01T14:23:25;11.98;;;8.00;;
16524;SDS011;8375;33.594;-117.718;2022-08-01T14:25:55;9.73;;;7.90;;
16524;SDS011;8375;33.594;-117.718;2022-08-01T14:28:24;11.90;;;8.00;;
16524;SDS011;8375;33.594;-117.718;2022-08-01T14:30:53;14.40;;;8.23;;
16524;SDS011;8375;33.594;-117.718;2022-08-01T14:33:22;11.25;;;7.20;;
16524;SDS011;8375;33.594;-117.718;2022-08-01T14:35:51;11.40;;;7.20;;
16524;SDS011;8375;33.594;-117.718;2022-08-01T14:38:20;10.85;;;7.93;;
16524;SDS011;8375;33.594;-117.718;2022-08-01T14:40:49;11.02;;;7.93;;
16524;SDS011;8375;33.594;-117.718;2022-08-01T14:43:20;9.43;;;7.13;;
16524;SDS011;8375;33.594;-117.718;2022-08-01T14:45:49;8.48;;;5.55;;